aviador You're here:

KWRI Decoded Metar

WRIGHTSTOWN in NJ, USA
Report Time2017-12-16 03:14:00
UTC Time2017-12-16 03:41:14
Flight Rules vfr VFR
Wind240° at 04 kt
W.Decomp.*RWY 24: 3.9 kt HW 0.8 kt RCW
RWY 18: 1.2 kt HW 3.8 kt RCW
W.Rank240° ranks 8
Current wind is below 240° avg. (7.6)
Visibility9999 m
Phenomena:N/A
Clouds:N/A
Expected CloudBase > 400 ft AGL from Temp-Dew spread
CeilingNone
Temp-7°C (ISA -22)
Dew Point-8°C (93% RH)
AAT-11.3°C
QNH1014 hPa
Density Alt-2,552 ft
Elevation135 ft
Report Wrong Elevation
Raw Report
SPECI KWRI 160314Z 24004KT 9SM CLR M07/M08 A2993 RMK VIS 1 1/8 RWY06/24
VIS 1 3/8 RWY24 SLP138 $=

Extra information for KWRI:More info

Metar Taf Metar & Taf Last 4 Metars F.Rules Stats Wind Profile Meteogram Temp Stats Airport Information Weather charts Add Link Nearby VenuesMetar ALERT Operation Metar Decoded Social comments

AIRNAV info for KWRI